• Join FlightAware (Why Join?)
  • Login
  • US Flag 
03:39AM EDT


 

Airport Tracker/Info


-or-


 

Live Flight TrackerFlight Track Log ✈ XOJ782 ✈ 11-Dec-2013 ✈ KBFI - KTEB

Flight Track Log - Related Links

Times and Time Zones

All times are in EST time to prevent confusion due to time zone crossing. See the XOJ782 flight status page for this flight to view local times or setup timezone preferences in your user account.

Time Position Orientation Groundspeed Altitude Reporting Facility
EST Latitude Longitude Course Direction KTS MPH feet Rate Location/Type
02:29PM 47.5056 -122.2814 152° Southeast 184 212 1,300  Level Seattle Center
02:30PM 47.4947 -122.2728 152° Southeast 194 223 2,300 3,300 Climbing Seattle Center
02:31PM 47.4658 -122.2000 120° Southeast 226 260 5,500 2,820 Climbing Seattle Center
02:32PM 47.4575 -122.0872 96° East 269 310 8,100 2,700 Climbing Seattle Center
02:33PM 47.4472 -121.9500 96° East 310 357 11,000 2,580 Climbing Seattle Center
02:34PM 47.4356 -121.8025 97° East 356 410 13,400 2,460 Climbing Seattle Center
02:35PM 47.4281 -121.6497 94° East 373 429 16,100 2,160 Climbing Seattle Center
02:36PM 47.4258 -121.4856 91° East 394 453 17,900 1,980 Climbing Seattle Center
02:37PM 47.4228 -121.3208 92° East 401 461 20,200 2,040 Climbing Seattle Center
02:38PM 47.4206 -121.1450 91° East 424 488 22,100 1,860 Climbing Seattle Center
02:39PM 47.4172 -120.9669 92° East 436 502 24,100 1,860 Climbing Seattle Center
02:40PM 47.4131 -120.7825 92° East 446 513 25,900 900 Climbing Seattle Center
02:41PM 47.4097 -120.5833 91° East 475 547 26,000 360 Climbing Seattle Center
02:42PM 47.3989 -120.3706 94° East 514 592 26,700 1,020 Climbing Seattle Center
02:43PM 47.3617 -120.1606 105° East 527 606 28,100 1,440 Climbing Seattle Center
02:44PM 47.3317 -119.9511 102° East 525 604 29,700 1,560 Climbing Seattle Center
02:45PM 47.3289 -119.7389 91° East 521 600 31,300 1,740 Climbing Seattle Center
02:46PM 47.3283 -119.4831 90° East 522 601 33,300 1,860 Climbing Seattle Center
02:47PM 47.3258 -119.2703 91° East 521 600 35,200 1,860 Climbing Seattle Center
02:48PM 47.3239 -119.0586 91° East 518 596 37,100 1,740 Climbing Seattle Center
02:49PM 47.3203 -118.8503 91° East 511 588 38,800 1,560 Climbing Seattle Center
02:50PM 47.3175 -118.6444 91° East 509 586 40,300 1,080 Climbing Seattle Center
02:51PM 47.3144 -118.4389 91° East 504 580 41,000 300 Climbing Seattle Center
02:52PM 47.3111 -118.2311 91° East 507 583 41,000  Level Seattle Center
02:53PM 47.3069 -118.0158 92° East 522 601 41,000  Level Seattle Center
02:54PM 47.3025 -117.7997 92° East 529 609 41,000  Level Seattle Center
02:55PM 47.2983 -117.5833 92° East 531 611 41,000  Level Seattle Center
02:56PM 47.2914 -117.3239 92° East 534 615 41,000  Level Seattle Center
02:57PM 47.2872 -117.1097 92° East 532 612 41,100 240 Climbing Seattle Center
02:58PM 47.2797 -116.8975 93° East 529 609 41,600 540 Climbing Seattle Center
02:59PM 47.2742 -116.6875 92° East 525 604 42,200 480 Climbing Seattle Center
03:00PM 47.2678 -116.4806 93° East 515 593 42,700 360 Climbing Seattle Center
03:01PM 47.2600 -116.2736 93° East 510 587 43,000 120 Climbing Seattle Center
03:02PM 47.2522 -116.0675 93° East 508 585 43,000  Level Seattle Center
03:03PM 47.2450 -115.8600 93° East 510 587 43,000  Level Seattle Center
03:04PM 47.2358 -115.6383 93° East 513 590 43,000  Level Seattle Center
03:05PM 47.2269 -115.4331 94° East 508 585 43,000  Level Seattle Center
03:06PM 47.2181 -115.2283 94° East 505 581 43,000  Level Seattle Center
03:07PM 47.2075 -114.9822 94° East 506 582 43,000  Level Seattle Center
03:08PM 47.1994 -114.8175 94° East 506 582 43,100 300 Climbing Salt Lake Center
03:09PM 47.1894 -114.6144 94° East 502 578 43,600 480 Climbing Salt Lake Center
03:10PM 47.1789 -114.4128 94° East 500 575 44,100 360 Climbing Salt Lake Center
03:11PM 47.1683 -114.2103 94° East 501 577 44,400 300 Climbing Salt Lake Center
03:12PM 47.1569 -114.0067 95° East 502 578 44,800 240 Climbing Salt Lake Center
03:13PM 47.1458 -113.8028 95° East 506 582 44,900 60 Climbing Salt Lake Center
03:14PM 47.1319 -113.5525 95° East 516 594 45,000  Climbing Salt Lake Center
03:15PM 47.1183 -113.3417 95° East 522 601 45,000  Level Salt Lake Center
03:16PM 47.1053 -113.1294 95° East 526 605 45,000  Level Salt Lake Center
03:17PM 47.0919 -112.9139 95° East 532 612 45,000 -60 Level Salt Lake Center
03:18PM 47.0767 -112.6733 95° East 533 613 44,900  Descending Salt Lake Center
03:19PM 47.0614 -112.4592 96° East 530 610 45,000  Climbing Salt Lake Center
03:20PM 47.0467 -112.2483 96° East 524 603 44,900  Descending Salt Lake Center
03:21PM 47.0308 -112.0350 96° East 530 610 45,000  Climbing Salt Lake Center
03:22PM 47.0150 -111.8211 96° East 532 612 45,000  Level Salt Lake Center
03:23PM 46.9992 -111.6075 96° East 532 612 45,000  Level Salt Lake Center
03:24PM 46.9792 -111.3533 96° East 530 610 45,000  Level Salt Lake Center
03:25PM 46.9625 -111.1400 96° East 533 613 45,000  Level Salt Lake Center
03:26PM 46.9453 -110.9267 97° East 534 615 45,000  Level Salt Lake Center
03:29PM 46.9086 -110.4978 97° East 536 617 45,000  Level Salt Lake Center
03:30PM 46.8900 -110.2828 97° East 537 618 45,000  Level Salt Lake Center
03:31PM 46.8672 -110.0256 97° East 535 616 45,000  Level Salt Lake Center
03:32PM 46.8469 -109.8103 98° East 538 619 45,000  Level Salt Lake Center
03:33PM 46.8306 -109.5911 96° East 544 626 45,000  Level Salt Lake Center
03:34PM 46.8089 -109.3767 98° East 540 621 45,000 -60 Level Salt Lake Center
03:35PM 46.7861 -109.1647 99° East 534 615 44,900  Descending Salt Lake Center
03:36PM 46.7619 -108.9122 98° East 538 619 45,000  Climbing Salt Lake Center
03:37PM 46.7397 -108.6931 98° East 543 625 45,000  Level Salt Lake Center
03:38PM 46.7167 -108.4775 99° East 542 624 45,000  Level Salt Lake Center
03:39PM 46.6944 -108.2586 98° East 545 627 45,000  Level Salt Lake Center
03:40PM 46.6686 -108.0383 100° East 551 634 45,000  Level Salt Lake Center
03:41PM 46.6444 -107.8200 99° East 548 631 45,000  Level Salt Lake Center
03:42PM 46.6222 -107.6042 98° East 543 625 45,000  Level Salt Lake Center
03:43PM 46.5911 -107.3417 100° East 547 629 45,000  Level Salt Lake Center
03:44PM 46.5656 -107.1222 100° East 550 633 45,000  Level Salt Lake Center
03:45PM 46.5386 -106.9022 100° East 552 635 45,000  Level Salt Lake Center
03:46PM 46.5125 -106.6833 100° East 552 635 45,000  Level Salt Lake Center
03:47PM 46.4861 -106.4653 100° East 551 634 45,000  Level Salt Lake Center
03:48PM 46.4589 -106.2464 100° East 551 634 45,000  Level Salt Lake Center
03:49PM 46.4308 -106.0272 100° East 552 635 45,000  Level Salt Lake Center
03:50PM 46.4017 -105.8089 101° East 553 636 45,000  Level Salt Lake Center
03:51PM 46.3678 -105.5467 101° East 552 635 45,000  Level Salt Lake Center
03:52PM 46.3400 -105.3306 100° East 551 634 45,000  Level Salt Lake Center
03:53PM 46.3100 -105.1128 101° East 551 634 45,000  Level Salt Lake Center
03:54PM 46.2808 -104.8956 101° East 552 635 45,000  Level Salt Lake Center
03:55PM 46.2508 -104.6772 101° East 553 636 45,000  Level Salt Lake Center
03:56PM 46.2194 -104.4594 102° East 554 638 45,000  Level Salt Lake Center
03:57PM 46.1886 -104.2406 101° East 554 638 45,000  Level Salt Lake Center
03:58PM 46.1567 -104.0225 102° East 555 639 45,000  Level Salt Lake Center
03:59PM 46.1189 -103.7617 102° East 557 641 45,000  Level Salt Lake Center
04:00PM 46.0869 -103.5439 102° East 558 642 45,000  Level Salt Lake Center
04:01PM 46.0542 -103.3272 102° East 558 642 45,000  Level Salt Lake Center
04:02PM 46.0208 -103.1117 102° East 557 641 45,000  Level Salt Lake Center
04:03PM 45.9956 -102.9358 102° East 557 641 45,000 -60 Level Minneapolis Center
04:04PM 45.9608 -102.7186 103° East 559 643 44,900  Descending Minneapolis Center
04:05PM 45.9200 -102.4583 103° East 559 643 45,000  Climbing Minneapolis Center
04:06PM 45.8847 -102.2439 103° East 558 642 45,000  Level Minneapolis Center
04:07PM 45.8489 -102.0264 103° East 560 644 45,000  Level Minneapolis Center
04:08PM 45.8117 -101.8100 104° East 562 647 45,000  Level Minneapolis Center
04:09PM 45.7761 -101.5919 103° East 563 648 45,000  Level Minneapolis Center
04:11PM 45.7383 -101.3750 104° East 564 649 45,000  Level Minneapolis Center
04:12PM 45.6950 -101.1208 104° East 568 654 45,000  Level Minneapolis Center
04:13PM 45.6564 -100.9028 104° East 569 655 45,000  Level Minneapolis Center
04:14PM 45.6178 -100.6856 104° East 569 655 45,000  Level Minneapolis Center
04:15PM 45.5778 -100.4672 105° East 569 655 45,000  Level Minneapolis Center
04:16PM 45.5392 -100.2483 104° East 571 657 45,000  Level Minneapolis Center
04:17PM 45.4900 -99.9883 105° East 570 656 45,000  Level Minneapolis Center
04:18PM 45.4503 -99.7706 105° East 570 656 45,000  Level Minneapolis Center
04:19PM 45.4092 -99.5542 105° East 569 655 45,000  Level Minneapolis Center
04:20PM 45.3678 -99.3392 105° East 569 655 45,000  Level Minneapolis Center
04:21PM 45.3250 -99.1200 105° East 569 655 45,000  Level Minneapolis Center
04:22PM 45.2792 -98.9075 107° East 567 652 45,000  Level Minneapolis Center
04:23PM 45.2267 -98.6486 106° East 568 654 45,000  Level Minneapolis Center
04:24PM 45.1822 -98.4322 106° East 570 656 45,000  Level Minneapolis Center
04:25PM 45.1397 -98.2128 105° East 574 661 45,000  Level Minneapolis Center
04:26PM 45.0997 -97.9922 104° East 577 664 45,000  Level Minneapolis Center
04:27PM 45.0536 -97.7753 107° East 577 664 45,000  Level Minneapolis Center
04:28PM 45.0058 -97.5611 107° East 573 659 45,000  Level Minneapolis Center
04:29PM 44.9525 -97.3003 106° East 576 663 45,000  Level Minneapolis Center
04:30PM 44.9053 -97.0844 107° East 576 663 45,000  Level Minneapolis Center
04:31PM 44.8592 -96.8683 107° East 575 662 45,000  Level Minneapolis Center
04:32PM 44.8114 -96.6511 107° East 578 665 45,000  Level Minneapolis Center
04:33PM 44.7644 -96.4350 107° East 577 664 45,000  Level Minneapolis Center
04:34PM 44.7150 -96.2172 108° East 580 667 45,000  Level Minneapolis Center
04:35PM 44.6678 -96.0003 107° East 579 666 45,000  Level Minneapolis Center
04:36PM 44.6178 -95.7831 108° East 579 666 45,000  Level Minneapolis Center
04:37PM 44.5586 -95.5222 108° East 583 671 45,000  Level Minneapolis Center
04:38PM 44.5083 -95.3058 108° East 583 671 45,000  Level Minneapolis Center
04:39PM 44.4594 -95.0886 107° East 584 672 45,000  Level Minneapolis Center
04:40PM 44.4328 -94.8692 100° East 574 661 45,000  Level Minneapolis Center
04:42PM 44.4008 -94.6292 100° East 578 665 45,000  Level Minneapolis Center
04:43PM 44.3653 -94.4056 102° East 586 674 45,000  Level Minneapolis Center
04:44PM 44.3350 -94.1847 101° East 582 670 45,000  Level Minneapolis Center
04:45PM 44.3039 -93.9658 101° East 581 669 45,000  Level Minneapolis Center
04:46PM 44.2650 -93.7008 101° East 585 673 45,000  Level Minneapolis Center
04:47PM 44.2325 -93.4828 102° East 584 672 45,000  Level Minneapolis Center
04:48PM 44.1992 -93.2631 102° East 585 673 45,000  Level Minneapolis Center
04:49PM 44.1678 -93.0439 101° East 583 671 45,000  Level Minneapolis Center
04:50PM 44.1325 -92.8250 103° East 586 674 45,000  Level Minneapolis Center
04:51PM 44.0906 -92.5556 102° East 589 678 45,000  Level Minneapolis Center
04:52PM 44.0528 -92.3403 104° East 575 662 45,000  Level Minneapolis Center
04:53PM 44.0192 -92.1211 102° East 581 669 45,000  Level Minneapolis Center
04:54PM 43.9842 -91.9014 102° East 584 672 45,000  Level Minneapolis Center
04:55PM 43.9483 -91.6814 103° East 588 677 45,000  Level Minneapolis Center
04:56PM 43.9103 -91.4614 103° East 586 674 45,000  Level Minneapolis Center
04:57PM 43.8578 -91.2017 106° East 584 672 45,000  Level Minneapolis Center
04:58PM 43.8122 -90.9850 106° East 586 674 45,000  Level Minneapolis Center
04:59PM 43.7669 -90.7647 106° East 592 681 45,000  Level Minneapolis Center
05:00PM 43.7122 -90.5103 106° East 583 671 45,000  Level Chicago Center
05:01PM 43.6656 -90.2950 107° East 586 674 45,000  Level Chicago Center
05:02PM 43.6194 -90.0783 106° East 591 680 45,000  Level Chicago Center
05:03PM 43.5736 -89.8650 106° East 584 672 45,000  Level Chicago Center
05:04PM 43.5203 -89.6556 109° East 581 669 45,000  Level Chicago Center
05:05PM 43.4469 -89.4072 112° Southeast 584 672 45,000  Level Chicago Center
05:06PM 43.3897 -89.2033 111° Southeast 576 663 45,000  Level Chicago Center
05:08PM 43.3289 -88.9989 112° Southeast 579 666 45,000  Level Chicago Center
05:09PM 43.2600 -88.7661 112° Southeast 582 670 45,000  Level Chicago Center
05:10PM 43.1997 -88.5622 112° Southeast 581 669 45,000  Level Chicago Center
05:11PM 43.1431 -88.3706 112° Southeast 586 674 45,000  Level Chicago Center
05:12PM 43.1003 -88.1564 105° East 588 677 45,000  Level Chicago Center
05:13PM 43.0733 -87.8908 98° East 589 678 45,000  Level Chicago Center
05:14PM 43.0492 -87.6697 98° East 590 679 45,000  Level Chicago Center
05:15PM 43.0236 -87.4486 99° East 592 681 45,000  Level Chicago Center
05:16PM 43.0003 -87.2283 98° East 589 678 45,000  Level Chicago Center
05:17PM 42.9742 -87.0086 99° East 590 679 45,000  Level Chicago Center
05:18PM 42.9442 -86.7439 99° East 591 680 45,000  Level Chicago Center
05:19PM 42.9292 -86.5219 95° East 591 680 45,000  Level Chicago Center
05:20PM 42.9150 -86.2986 95° East 595 685 45,000  Level Chicago Center
05:21PM 42.9006 -86.0817 95° East 592 681 45,000  Level Chicago Center
05:22PM 42.8808 -85.8236 96° East 588 677 45,000  Level Chicago Center
05:23PM 42.8639 -85.6031 96° East 592 681 45,000  Level Chicago Center
05:24PM 42.8472 -85.3800 96° East 596 686 45,000  Level Chicago Center
05:25PM 42.8294 -85.1564 96° East 596 686 45,000  Level Chicago Center
05:26PM 42.8119 -84.9308 96° East 600 690 45,000  Level Chicago Center
05:27PM 42.7903 -84.6608 96° East 600 690 45,000  Level Chicago Center
05:28PM 42.7703 -84.4361 97° East 600 690 45,000  Level Chicago Center
05:29PM 42.7511 -84.2117 97° East 598 688 45,000  Level Chicago Center
05:30PM 42.7272 -83.9664 97° East 603 694 45,000  Level Cleveland Center
05:31PM 42.7069 -83.7392 97° East 603 694 45,000  Level Cleveland Center
05:32PM 42.6858 -83.5125 97° East 601 692 45,000  Level Cleveland Center
05:33PM 42.6592 -83.2383 97° East 604 695 45,000  Level Cleveland Center
05:35PM 42.6372 -83.0097 97° East 607 699 45,000  Level Cleveland Center
05:36PM 42.6144 -82.7808 98° East 609 701 45,000  Level Cleveland Center
05:37PM 42.5919 -82.5522 98° East 610 702 45,000  Level Cleveland Center
05:38PM 42.5667 -82.3236 98° East 613 705 45,000  Level Cleveland Center
05:39PM 42.5433 -82.0936 98° East 616 709 45,000  Level Cleveland Center
05:40PM 42.5136 -81.8194 98° East 613 705 45,000  Level Cleveland Center
05:41PM 42.4903 -81.6053 98° East 619 712 45,000  Level Cleveland Center
05:42PM 42.4642 -81.3728 99° East 618 711 45,000  Level Cleveland Center
05:43PM 42.4381 -81.1417 99° East 616 709 45,000  Level Cleveland Center
05:44PM 42.4069 -80.8717 99° East 616 709 45,000  Level Cleveland Center
05:45PM 42.3789 -80.6406 99° East 616 709 45,000 -60 Level Cleveland Center
05:46PM 42.3514 -80.4067 99° East 620 713 44,900 -480 Descending Cleveland Center
05:47PM 42.3239 -80.1733 99° East 624 718 44,100 -900 Descending Cleveland Center
05:48PM 42.2928 -79.9219 99° East 627 722 43,100 -1,020 Descending Cleveland Center
05:49PM 42.2619 -79.6900 100° East 629 724 42,100 -960 Descending Cleveland Center
05:50PM 42.2314 -79.4553 100° East 636 732 41,200 -540 Descending Cleveland Center
05:51PM 42.1997 -79.2172 100° East 643 740 41,000 -120 Descending Cleveland Center
05:52PM 42.1544 -78.9861 105° East 638 734 41,000  Level Cleveland Center
05:53PM 42.0981 -78.7644 109° East 628 723 41,000  Level Cleveland Center
05:54PM 42.0300 -78.4978 109° East 627 722 41,000 -180 Level Cleveland Center
05:55PM 41.9736 -78.2758 109° East 626 720 40,700 -1,920 Descending Cleveland Center
05:56PM 41.9139 -78.0464 109° East 624 718 37,100 -2,760 Descending Cleveland Center
05:57PM 41.8592 -77.8350 109° East 625 719 35,000 -1,020 Descending Cleveland Center
05:58PM 41.8003 -77.6094 109° East 637 733 35,000  Level Cleveland Center
05:59PM 41.7389 -77.3814 110° East 640 736 35,000 -60 Level Cleveland Center
06:00PM 41.6669 -77.1100 109° East 648 746 34,900 -480 Descending Cleveland Center
06:01PM 41.6064 -76.8856 110° East 648 746 34,100 -1,140 Descending Cleveland Center
06:02PM 41.5458 -76.6650 110° East 640 736 32,600 -3,120 Descending Cleveland Center
06:04PM 41.4831 -76.4378 110° East 636 732 27,700 -3,600 Descending Cleveland Center
06:05PM 41.4233 -76.2208 110° East 630 725 25,200 -2,460 Descending Cleveland Center
06:06PM 41.3661 -76.0175 110° East 602 693 22,700 -2,280 Descending Cleveland Center
06:07PM 41.2856 -75.7572 112° Southeast 578 665 20,200 -7,680 Descending New York Center
06:08PM 41.2383 -75.5856 110° East 553 636 6,000 -4,020 Descending New York Center
06:09PM 41.1919 -75.4444 114° Southeast 480 552 12,200 1,620 Climbing New York Center
06:10PM 41.1417 -75.2950 114° Southeast 449 517 9,300 -1,800 Descending New York Center
06:11PM 41.0967 -75.1625 114° Southeast 396 456 8,600 -1,140 Descending New York Center
06:12PM 41.0717 -75.0508 107° East 327 376 7,100 -1,320 Descending New York Center
06:13PM 41.0672 -74.9378 93° East 306 352 6,000 -960 Descending New York Center
06:14PM 41.0628 -74.8272 93° East 301 346 5,200 -900 Descending New York Center
06:15PM 41.0597 -74.7336 92° East 294 338 4,200 -780 Descending New York Center
06:16PM 41.0550 -74.6206 93° East 278 320 3,700 -600 Descending New York Center
06:17PM 41.0497 -74.5322 95° East 271 312 3,000 -360 Descending New York Center
06:18PM 41.0444 -74.4300 94° East 271 312 3,000  Level New York Center
06:19PM 41.0392 -74.3281 94° East 265 305 3,000 -60 Level New York Center
06:20PM 41.0356 -74.2425 93° East 253 291 2,900 -540 Descending New York Center
06:21PM 41.0339 -74.1544 91° East 253 291 2,000 -420 Descending New York Center
06:22PM 41.0000 -74.0667 117° Southeast 182 209 2,000  Level New York TRACON
06:23PM 40.9667 -74.0500 159° South 167 192 2,000 -360 Level New York TRACON
06:24PM 40.9167 -74.0500 180° South 124 143 1,400 -660 Descending New York TRACON
06:25PM 40.8833 -74.0500 180° South 112 129 700 -720 Descending New York TRACON
06:27PM 40.8500 -74.0500 158° South  Level FlightAware Approximate
06:34PM 40.8501 -74.0608 158° South  Level Estimated